sensor_id;sensor_type;location;lat;lon;timestamp;P1;durP1;ratioP1;P2;durP2;ratioP2
63346;SDS011;49472;49.880;8.650;2024-03-02T00:01:47;21.50;;;19.60;;
63346;SDS011;49472;49.880;8.650;2024-03-02T00:04:12;22.00;;;19.93;;
63346;SDS011;49472;49.880;8.650;2024-03-02T00:06:37;22.20;;;20.20;;
63346;SDS011;49472;49.880;8.650;2024-03-02T00:09:02;22.37;;;20.37;;
63346;SDS011;49472;49.880;8.650;2024-03-02T00:11:28;22.50;;;20.03;;
63346;SDS011;49472;49.880;8.650;2024-03-02T00:13:53;22.40;;;20.40;;
63346;SDS011;49472;49.880;8.650;2024-03-02T00:16:19;24.30;;;21.97;;
63346;SDS011;49472;49.880;8.650;2024-03-02T00:18:45;25.03;;;22.30;;
63346;SDS011;49472;49.880;8.650;2024-03-02T00:21:10;26.37;;;23.87;;
63346;SDS011;49472;49.880;8.650;2024-03-02T00:23:35;25.10;;;22.70;;
63346;SDS011;49472;49.880;8.650;2024-03-02T00:26:01;26.73;;;23.37;;
63346;SDS011;49472;49.880;8.650;2024-03-02T00:28:33;23.60;;;21.40;;
63346;SDS011;49472;49.880;8.650;2024-03-02T00:31:08;23.80;;;21.70;;
63346;SDS011;49472;49.880;8.650;2024-03-02T00:33:37;25.80;;;22.97;;
63346;SDS011;49472;49.880;8.650;2024-03-02T00:36:05;24.30;;;21.90;;
63346;SDS011;49472;49.880;8.650;2024-03-02T00:38:31;23.10;;;21.20;;
63346;SDS011;49472;49.880;8.650;2024-03-02T00:40:58;24.40;;;21.70;;
63346;SDS011;49472;49.880;8.650;2024-03-02T00:45:48;24.33;;;22.13;;
63346;SDS011;49472;49.880;8.650;2024-03-02T00:48:15;25.93;;;23.30;;
63346;SDS011;49472;49.880;8.650;2024-03-02T00:50:40;25.20;;;22.67;;
63346;SDS011;49472;49.880;8.650;2024-03-02T00:53:08;26.47;;;23.87;;
63346;SDS011;49472;49.880;8.650;2024-03-02T00:55:36;24.70;;;22.20;;
63346;SDS011;49472;49.880;8.650;2024-03-02T00:58:02;23.57;;;21.37;;
63346;SDS011;49472;49.880;8.650;2024-03-02T01:00:27;25.17;;;22.13;;
63346;SDS011;49472;49.880;8.650;2024-03-02T01:02:52;24.37;;;22.03;;
63346;SDS011;49472;49.880;8.650;2024-03-02T01:05:17;24.57;;;22.27;;
63346;SDS011;49472;49.880;8.650;2024-03-02T01:07:42;25.07;;;22.70;;
63346;SDS011;49472;49.880;8.650;2024-03-02T01:10:08;24.47;;;22.17;;
63346;SDS011;49472;49.880;8.650;2024-03-02T01:12:34;26.17;;;23.53;;
63346;SDS011;49472;49.880;8.650;2024-03-02T01:15:00;23.90;;;21.67;;
63346;SDS011;49472;49.880;8.650;2024-03-02T01:17:25;23.10;;;20.93;;
63346;SDS011;49472;49.880;8.650;2024-03-02T01:19:50;24.40;;;22.23;;
63346;SDS011;49472;49.880;8.650;2024-03-02T01:22:15;23.70;;;21.50;;
63346;SDS011;49472;49.880;8.650;2024-03-02T01:24:41;24.00;;;21.40;;
63346;SDS011;49472;49.880;8.650;2024-03-02T01:27:07;23.37;;;20.77;;
63346;SDS011;49472;49.880;8.650;2024-03-02T01:29:32;28.17;;;23.47;;
63346;SDS011;49472;49.880;8.650;2024-03-02T01:31:58;25.03;;;22.37;;
63346;SDS011;49472;49.880;8.650;2024-03-02T01:34:23;25.57;;;22.80;;
63346;SDS011;49472;49.880;8.650;2024-03-02T01:36:48;27.67;;;24.73;;
63346;SDS011;49472;49.880;8.650;2024-03-02T01:39:13;25.67;;;23.17;;
63346;SDS011;49472;49.880;8.650;2024-03-02T01:41:38;26.47;;;23.50;;
63346;SDS011;49472;49.880;8.650;2024-03-02T01:44:04;26.63;;;23.70;;
63346;SDS011;49472;49.880;8.650;2024-03-02T01:46:29;25.73;;;23.10;;
63346;SDS011;49472;49.880;8.650;2024-03-02T01:48:54;26.63;;;23.90;;
63346;SDS011;49472;49.880;8.650;2024-03-02T01:51:19;24.40;;;22.10;;
63346;SDS011;49472;49.880;8.650;2024-03-02T01:53:45;25.17;;;22.73;;
63346;SDS011;49472;49.880;8.650;2024-03-02T01:56:10;26.50;;;23.07;;
63346;SDS011;49472;49.880;8.650;2024-03-02T01:58:36;24.23;;;21.93;;
63346;SDS011;49472;49.880;8.650;2024-03-02T02:01:01;26.37;;;23.20;;
63346;SDS011;49472;49.880;8.650;2024-03-02T02:03:26;25.30;;;22.73;;
63346;SDS011;49472;49.880;8.650;2024-03-02T02:05:51;26.10;;;23.37;;
63346;SDS011;49472;49.880;8.650;2024-03-02T02:08:16;25.30;;;22.70;;
63346;SDS011;49472;49.880;8.650;2024-03-02T02:10:42;26.53;;;24.03;;
63346;SDS011;49472;49.880;8.650;2024-03-02T02:13:07;25.13;;;22.37;;
63346;SDS011;49472;49.880;8.650;2024-03-02T02:15:33;27.30;;;22.27;;
63346;SDS011;49472;49.880;8.650;2024-03-02T02:18:01;24.43;;;21.97;;
63346;SDS011;49472;49.880;8.650;2024-03-02T02:20:26;24.27;;;22.17;;
63346;SDS011;49472;49.880;8.650;2024-03-02T02:23:01;25.53;;;22.93;;
63346;SDS011;49472;49.880;8.650;2024-03-02T02:25:27;23.77;;;21.57;;
63346;SDS011;49472;49.880;8.650;2024-03-02T02:27:53;26.10;;;23.40;;
63346;SDS011;49472;49.880;8.650;2024-03-02T02:30:19;25.53;;;22.73;;
63346;SDS011;49472;49.880;8.650;2024-03-02T02:32:45;24.63;;;22.43;;
63346;SDS011;49472;49.880;8.650;2024-03-02T02:35:10;24.53;;;22.30;;
63346;SDS011;49472;49.880;8.650;2024-03-02T02:37:35;25.83;;;23.30;;
63346;SDS011;49472;49.880;8.650;2024-03-02T02:40:01;25.47;;;22.83;;
63346;SDS011;49472;49.880;8.650;2024-03-02T02:42:27;28.20;;;25.40;;
63346;SDS011;49472;49.880;8.650;2024-03-02T02:44:52;38.83;;;29.73;;
63346;SDS011;49472;49.880;8.650;2024-03-02T02:47:17;26.37;;;23.57;;
63346;SDS011;49472;49.880;8.650;2024-03-02T02:49:42;27.73;;;21.47;;
63346;SDS011;49472;49.880;8.650;2024-03-02T02:52:07;24.67;;;22.30;;
63346;SDS011;49472;49.880;8.650;2024-03-02T02:54:33;24.37;;;21.97;;
63346;SDS011;49472;49.880;8.650;2024-03-02T02:56:58;23.27;;;20.80;;
63346;SDS011;49472;49.880;8.650;2024-03-02T02:59:24;23.60;;;21.20;;
63346;SDS011;49472;49.880;8.650;2024-03-02T03:01:51;25.63;;;22.80;;
63346;SDS011;49472;49.880;8.650;2024-03-02T03:04:16;24.37;;;21.93;;
63346;SDS011;49472;49.880;8.650;2024-03-02T03:06:41;22.73;;;20.73;;
63346;SDS011;49472;49.880;8.650;2024-03-02T03:09:06;23.97;;;21.87;;
63346;SDS011;49472;49.880;8.650;2024-03-02T03:11:32;24.20;;;21.40;;
63346;SDS011;49472;49.880;8.650;2024-03-02T03:13:57;24.03;;;21.73;;
63346;SDS011;49472;49.880;8.650;2024-03-02T03:16:22;23.90;;;21.60;;
63346;SDS011;49472;49.880;8.650;2024-03-02T03:18:47;23.60;;;21.40;;
63346;SDS011;49472;49.880;8.650;2024-03-02T03:21:15;24.20;;;21.03;;
63346;SDS011;49472;49.880;8.650;2024-03-02T03:23:40;23.07;;;21.17;;
63346;SDS011;49472;49.880;8.650;2024-03-02T03:26:06;23.77;;;21.40;;
63346;SDS011;49472;49.880;8.650;2024-03-02T03:28:31;23.23;;;21.00;;
63346;SDS011;49472;49.880;8.650;2024-03-02T03:30:56;21.57;;;19.77;;
63346;SDS011;49472;49.880;8.650;2024-03-02T03:33:21;21.67;;;19.87;;
63346;SDS011;49472;49.880;8.650;2024-03-02T03:35:46;21.77;;;19.67;;
63346;SDS011;49472;49.880;8.650;2024-03-02T03:38:13;22.13;;;20.03;;
63346;SDS011;49472;49.880;8.650;2024-03-02T03:40:39;22.50;;;20.33;;
63346;SDS011;49472;49.880;8.650;2024-03-02T03:43:04;21.70;;;19.83;;
63346;SDS011;49472;49.880;8.650;2024-03-02T03:45:29;22.10;;;19.90;;
63346;SDS011;49472;49.880;8.650;2024-03-02T03:47:55;22.93;;;20.83;;
63346;SDS011;49472;49.880;8.650;2024-03-02T03:50:20;23.70;;;21.40;;
63346;SDS011;49472;49.880;8.650;2024-03-02T03:52:46;22.57;;;20.40;;
63346;SDS011;49472;49.880;8.650;2024-03-02T03:55:11;24.17;;;22.00;;
63346;SDS011;49472;49.880;8.650;2024-03-02T03:57:36;23.97;;;21.77;;
63346;SDS011;49472;49.880;8.650;2024-03-02T04:00:02;24.03;;;21.83;;
63346;SDS011;49472;49.880;8.650;2024-03-02T04:02:27;24.23;;;21.63;;
63346;SDS011;49472;49.880;8.650;2024-03-02T04:04:52;24.03;;;21.80;;
63346;SDS011;49472;49.880;8.650;2024-03-02T04:07:17;23.37;;;21.23;;
63346;SDS011;49472;49.880;8.650;2024-03-02T04:09:43;23.77;;;21.40;;
63346;SDS011;49472;49.880;8.650;2024-03-02T04:12:08;23.50;;;21.20;;
63346;SDS011;49472;49.880;8.650;2024-03-02T04:14:33;24.27;;;21.93;;
63346;SDS011;49472;49.880;8.650;2024-03-02T04:16:58;24.13;;;21.80;;
63346;SDS011;49472;49.880;8.650;2024-03-02T04:19:23;23.17;;;21.03;;
63346;SDS011;49472;49.880;8.650;2024-03-02T04:21:48;24.70;;;22.30;;
63346;SDS011;49472;49.880;8.650;2024-03-02T04:24:14;24.53;;;22.33;;
63346;SDS011;49472;49.880;8.650;2024-03-02T04:26:39;23.77;;;21.63;;
63346;SDS011;49472;49.880;8.650;2024-03-02T04:29:04;24.03;;;21.83;;
63346;SDS011;49472;49.880;8.650;2024-03-02T04:31:29;23.30;;;21.20;;
63346;SDS011;49472;49.880;8.650;2024-03-02T04:33:54;25.10;;;22.50;;
63346;SDS011;49472;49.880;8.650;2024-03-02T04:36:20;25.10;;;22.90;;
63346;SDS011;49472;49.880;8.650;2024-03-02T04:38:46;23.77;;;21.47;;
63346;SDS011;49472;49.880;8.650;2024-03-02T04:41:11;25.23;;;22.77;;
63346;SDS011;49472;49.880;8.650;2024-03-02T04:43:36;25.77;;;23.17;;
63346;SDS011;49472;49.880;8.650;2024-03-02T04:46:02;25.03;;;22.80;;
63346;SDS011;49472;49.880;8.650;2024-03-02T04:48:27;25.60;;;23.20;;
63346;SDS011;49472;49.880;8.650;2024-03-02T04:50:52;25.90;;;23.30;;
63346;SDS011;49472;49.880;8.650;2024-03-02T04:53:17;25.80;;;23.40;;
63346;SDS011;49472;49.880;8.650;2024-03-02T04:55:43;27.03;;;24.43;;
63346;SDS011;49472;49.880;8.650;2024-03-02T04:58:08;26.07;;;23.57;;
63346;SDS011;49472;49.880;8.650;2024-03-02T05:00:33;26.63;;;24.10;;
63346;SDS011;49472;49.880;8.650;2024-03-02T05:02:58;26.97;;;24.37;;
63346;SDS011;49472;49.880;8.650;2024-03-02T05:05:24;26.37;;;23.77;;
63346;SDS011;49472;49.880;8.650;2024-03-02T05:07:49;25.00;;;22.60;;
63346;SDS011;49472;49.880;8.650;2024-03-02T05:10:14;26.53;;;24.00;;
63346;SDS011;49472;49.880;8.650;2024-03-02T05:12:39;28.20;;;25.07;;
63346;SDS011;49472;49.880;8.650;2024-03-02T05:15:08;26.90;;;24.10;;
63346;SDS011;49472;49.880;8.650;2024-03-02T05:17:35;28.30;;;23.50;;
63346;SDS011;49472;49.880;8.650;2024-03-02T05:20:00;28.07;;;24.13;;
63346;SDS011;49472;49.880;8.650;2024-03-02T05:22:25;29.03;;;24.50;;
63346;SDS011;49472;49.880;8.650;2024-03-02T05:24:50;27.20;;;24.47;;
63346;SDS011;49472;49.880;8.650;2024-03-02T05:27:16;30.03;;;25.40;;
63346;SDS011;49472;49.880;8.650;2024-03-02T05:29:41;30.90;;;24.33;;
63346;SDS011;49472;49.880;8.650;2024-03-02T05:32:06;27.47;;;24.53;;
63346;SDS011;49472;49.880;8.650;2024-03-02T05:34:31;26.57;;;23.77;;
63346;SDS011;49472;49.880;8.650;2024-03-02T05:36:58;26.63;;;23.83;;
63346;SDS011;49472;49.880;8.650;2024-03-02T05:39:23;29.03;;;26.00;;
63346;SDS011;49472;49.880;8.650;2024-03-02T05:41:48;28.17;;;24.53;;
63346;SDS011;49472;49.880;8.650;2024-03-02T05:44:13;27.87;;;25.07;;
63346;SDS011;49472;49.880;8.650;2024-03-02T05:46:40;28.70;;;25.90;;
63346;SDS011;49472;49.880;8.650;2024-03-02T05:49:05;29.17;;;25.80;;
63346;SDS011;49472;49.880;8.650;2024-03-02T05:51:32;28.43;;;25.37;;
63346;SDS011;49472;49.880;8.650;2024-03-02T05:53:58;27.77;;;24.90;;
63346;SDS011;49472;49.880;8.650;2024-03-02T05:56:23;28.50;;;25.60;;
63346;SDS011;49472;49.880;8.650;2024-03-02T05:58:48;27.43;;;24.50;;
63346;SDS011;49472;49.880;8.650;2024-03-02T06:01:32;29.10;;;25.90;;
63346;SDS011;49472;49.880;8.650;2024-03-02T06:03:58;30.73;;;27.40;;
63346;SDS011;49472;49.880;8.650;2024-03-02T06:06:24;27.67;;;24.73;;
63346;SDS011;49472;49.880;8.650;2024-03-02T06:08:49;30.97;;;26.07;;
63346;SDS011;49472;49.880;8.650;2024-03-02T06:11:15;31.37;;;27.90;;
63346;SDS011;49472;49.880;8.650;2024-03-02T06:13:40;29.27;;;26.13;;
63346;SDS011;49472;49.880;8.650;2024-03-02T06:16:05;31.17;;;27.07;;
63346;SDS011;49472;49.880;8.650;2024-03-02T06:18:30;29.90;;;26.90;;
63346;SDS011;49472;49.880;8.650;2024-03-02T06:20:56;28.20;;;25.30;;
63346;SDS011;49472;49.880;8.650;2024-03-02T06:23:21;31.77;;;27.97;;
63346;SDS011;49472;49.880;8.650;2024-03-02T06:25:46;28.13;;;25.53;;
63346;SDS011;49472;49.880;8.650;2024-03-02T06:28:11;30.37;;;27.20;;
63346;SDS011;49472;49.880;8.650;2024-03-02T06:30:36;30.30;;;25.53;;
63346;SDS011;49472;49.880;8.650;2024-03-02T06:33:01;28.63;;;24.73;;
63346;SDS011;49472;49.880;8.650;2024-03-02T06:35:28;29.60;;;26.53;;
63346;SDS011;49472;49.880;8.650;2024-03-02T06:37:53;29.67;;;26.47;;
63346;SDS011;49472;49.880;8.650;2024-03-02T06:40:19;31.80;;;26.20;;
63346;SDS011;49472;49.880;8.650;2024-03-02T06:42:44;30.83;;;27.50;;
63346;SDS011;49472;49.880;8.650;2024-03-02T06:45:09;29.70;;;26.07;;
63346;SDS011;49472;49.880;8.650;2024-03-02T06:47:34;28.27;;;25.27;;
63346;SDS011;49472;49.880;8.650;2024-03-02T06:50:00;30.73;;;26.43;;
63346;SDS011;49472;49.880;8.650;2024-03-02T06:52:25;32.10;;;26.40;;
63346;SDS011;49472;49.880;8.650;2024-03-02T06:54:50;28.00;;;25.20;;
63346;SDS011;49472;49.880;8.650;2024-03-02T06:57:15;29.60;;;26.40;;
63346;SDS011;49472;49.880;8.650;2024-03-02T06:59:42;33.30;;;29.17;;
63346;SDS011;49472;49.880;8.650;2024-03-02T07:02:07;29.03;;;26.13;;
63346;SDS011;49472;49.880;8.650;2024-03-02T07:04:33;30.47;;;27.27;;
63346;SDS011;49472;49.880;8.650;2024-03-02T07:06:59;29.97;;;26.80;;
63346;SDS011;49472;49.880;8.650;2024-03-02T07:09:24;34.17;;;26.73;;
63346;SDS011;49472;49.880;8.650;2024-03-02T07:11:49;33.40;;;28.30;;
63346;SDS011;49472;49.880;8.650;2024-03-02T07:14:15;33.40;;;27.67;;
63346;SDS011;49472;49.880;8.650;2024-03-02T07:16:40;29.93;;;26.83;;
63346;SDS011;49472;49.880;8.650;2024-03-02T07:19:05;34.90;;;28.63;;
63346;SDS011;49472;49.880;8.650;2024-03-02T07:21:31;33.57;;;27.77;;
63346;SDS011;49472;49.880;8.650;2024-03-02T07:23:57;42.80;;;30.37;;
63346;SDS011;49472;49.880;8.650;2024-03-02T07:26:23;30.67;;;27.40;;
63346;SDS011;49472;49.880;8.650;2024-03-02T07:28:48;35.13;;;29.17;;
63346;SDS011;49472;49.880;8.650;2024-03-02T07:31:14;32.23;;;28.67;;
63346;SDS011;49472;49.880;8.650;2024-03-02T07:33:39;31.30;;;28.13;;
63346;SDS011;49472;49.880;8.650;2024-03-02T07:36:04;31.13;;;27.90;;
63346;SDS011;49472;49.880;8.650;2024-03-02T07:38:29;31.63;;;28.33;;
63346;SDS011;49472;49.880;8.650;2024-03-02T07:40:55;34.77;;;28.23;;
63346;SDS011;49472;49.880;8.650;2024-03-02T07:43:20;30.77;;;27.67;;
63346;SDS011;49472;49.880;8.650;2024-03-02T07:45:46;29.50;;;26.40;;
63346;SDS011;49472;49.880;8.650;2024-03-02T07:48:12;30.50;;;27.23;;
63346;SDS011;49472;49.880;8.650;2024-03-02T07:50:37;30.37;;;27.20;;
63346;SDS011;49472;49.880;8.650;2024-03-02T07:53:03;30.00;;;26.90;;
63346;SDS011;49472;49.880;8.650;2024-03-02T07:55:29;29.03;;;26.10;;
63346;SDS011;49472;49.880;8.650;2024-03-02T07:57:55;31.47;;;26.60;;
63346;SDS011;49472;49.880;8.650;2024-03-02T08:00:20;31.17;;;28.03;;
63346;SDS011;49472;49.880;8.650;2024-03-02T08:02:46;28.27;;;25.57;;
63346;SDS011;49472;49.880;8.650;2024-03-02T08:05:11;30.40;;;27.37;;
63346;SDS011;49472;49.880;8.650;2024-03-02T08:07:36;31.13;;;28.03;;
63346;SDS011;49472;49.880;8.650;2024-03-02T08:10:01;32.10;;;28.93;;
63346;SDS011;49472;49.880;8.650;2024-03-02T08:12:27;31.00;;;28.07;;
63346;SDS011;49472;49.880;8.650;2024-03-02T08:14:52;33.77;;;30.20;;
63346;SDS011;49472;49.880;8.650;2024-03-02T08:17:17;30.30;;;27.10;;
63346;SDS011;49472;49.880;8.650;2024-03-02T08:19:42;39.73;;;29.30;;
63346;SDS011;49472;49.880;8.650;2024-03-02T08:22:08;32.80;;;28.67;;
63346;SDS011;49472;49.880;8.650;2024-03-02T08:24:34;42.00;;;32.27;;
63346;SDS011;49472;49.880;8.650;2024-03-02T08:26:59;45.27;;;27.70;;
63346;SDS011;49472;49.880;8.650;2024-03-02T08:29:25;32.67;;;27.03;;
63346;SDS011;49472;49.880;8.650;2024-03-02T08:31:50;29.07;;;26.07;;
63346;SDS011;49472;49.880;8.650;2024-03-02T08:34:15;27.43;;;24.80;;
63346;SDS011;49472;49.880;8.650;2024-03-02T08:36:40;28.47;;;25.67;;
63346;SDS011;49472;49.880;8.650;2024-03-02T08:39:06;29.23;;;26.23;;
63346;SDS011;49472;49.880;8.650;2024-03-02T08:41:40;27.63;;;24.83;;
63346;SDS011;49472;49.880;8.650;2024-03-02T08:44:05;27.90;;;24.97;;
63346;SDS011;49472;49.880;8.650;2024-03-02T08:46:31;30.00;;;27.00;;
63346;SDS011;49472;49.880;8.650;2024-03-02T08:48:56;28.83;;;26.03;;
63346;SDS011;49472;49.880;8.650;2024-03-02T08:51:21;32.03;;;26.63;;
63346;SDS011;49472;49.880;8.650;2024-03-02T08:53:47;30.03;;;27.00;;
63346;SDS011;49472;49.880;8.650;2024-03-02T08:56:12;27.97;;;25.23;;
63346;SDS011;49472;49.880;8.650;2024-03-02T08:58:38;28.97;;;26.17;;
63346;SDS011;49472;49.880;8.650;2024-03-02T09:01:03;29.20;;;26.13;;
63346;SDS011;49472;49.880;8.650;2024-03-02T09:03:28;32.13;;;28.83;;
63346;SDS011;49472;49.880;8.650;2024-03-02T09:05:53;30.17;;;27.37;;
63346;SDS011;49472;49.880;8.650;2024-03-02T09:08:19;30.60;;;27.43;;
63346;SDS011;49472;49.880;8.650;2024-03-02T09:10:44;29.67;;;26.53;;
63346;SDS011;49472;49.880;8.650;2024-03-02T09:13:09;31.53;;;28.30;;
63346;SDS011;49472;49.880;8.650;2024-03-02T09:15:34;44.23;;;26.93;;
63346;SDS011;49472;49.880;8.650;2024-03-02T09:18:02;30.83;;;26.70;;
63346;SDS011;49472;49.880;8.650;2024-03-02T09:20:28;31.80;;;27.47;;
63346;SDS011;49472;49.880;8.650;2024-03-02T09:22:53;28.87;;;26.03;;
63346;SDS011;49472;49.880;8.650;2024-03-02T09:25:18;28.60;;;25.63;;
63346;SDS011;49472;49.880;8.650;2024-03-02T09:27:43;28.63;;;25.83;;
63346;SDS011;49472;49.880;8.650;2024-03-02T09:30:08;29.03;;;25.93;;
63346;SDS011;49472;49.880;8.650;2024-03-02T09:32:35;28.57;;;25.67;;
63346;SDS011;49472;49.880;8.650;2024-03-02T09:35:00;29.03;;;25.97;;
63346;SDS011;49472;49.880;8.650;2024-03-02T09:37:25;28.43;;;25.53;;
63346;SDS011;49472;49.880;8.650;2024-03-02T09:39:51;31.97;;;26.63;;
63346;SDS011;49472;49.880;8.650;2024-03-02T09:42:17;27.50;;;24.90;;
63346;SDS011;49472;49.880;8.650;2024-03-02T09:44:42;29.50;;;26.33;;
63346;SDS011;49472;49.880;8.650;2024-03-02T09:47:08;28.50;;;25.50;;
63346;SDS011;49472;49.880;8.650;2024-03-02T09:49:33;28.67;;;25.83;;
63346;SDS011;49472;49.880;8.650;2024-03-02T09:51:59;26.77;;;24.10;;
63346;SDS011;49472;49.880;8.650;2024-03-02T09:54:25;27.10;;;24.40;;
63346;SDS011;49472;49.880;8.650;2024-03-02T09:56:50;26.80;;;23.60;;
63346;SDS011;49472;49.880;8.650;2024-03-02T09:59:16;28.07;;;25.17;;
63346;SDS011;49472;49.880;8.650;2024-03-02T10:02:00;28.10;;;24.43;;
63346;SDS011;49472;49.880;8.650;2024-03-02T10:04:25;27.10;;;24.53;;
63346;SDS011;49472;49.880;8.650;2024-03-02T10:06:51;27.70;;;24.90;;
63346;SDS011;49472;49.880;8.650;2024-03-02T10:09:28;27.67;;;25.07;;
63346;SDS011;49472;49.880;8.650;2024-03-02T10:12:01;26.67;;;24.27;;
63346;SDS011;49472;49.880;8.650;2024-03-02T10:14:28;25.90;;;23.23;;
63346;SDS011;49472;49.880;8.650;2024-03-02T10:16:53;27.50;;;24.83;;
63346;SDS011;49472;49.880;8.650;2024-03-02T10:19:26;26.90;;;24.00;;
63346;SDS011;49472;49.880;8.650;2024-03-02T10:21:52;25.17;;;22.87;;
63346;SDS011;49472;49.880;8.650;2024-03-02T10:24:18;24.10;;;22.00;;
63346;SDS011;49472;49.880;8.650;2024-03-02T10:26:43;26.57;;;24.27;;
63346;SDS011;49472;49.880;8.650;2024-03-02T10:29:09;27.07;;;24.30;;
63346;SDS011;49472;49.880;8.650;2024-03-02T10:31:36;25.60;;;23.40;;
63346;SDS011;49472;49.880;8.650;2024-03-02T10:34:01;25.30;;;23.00;;
63346;SDS011;49472;49.880;8.650;2024-03-02T10:36:27;25.00;;;22.90;;
63346;SDS011;49472;49.880;8.650;2024-03-02T10:38:53;24.97;;;22.77;;
63346;SDS011;49472;49.880;8.650;2024-03-02T10:41:22;23.77;;;21.67;;
63346;SDS011;49472;49.880;8.650;2024-03-02T10:43:48;24.10;;;22.00;;
63346;SDS011;49472;49.880;8.650;2024-03-02T10:46:13;24.70;;;22.17;;
63346;SDS011;49472;49.880;8.650;2024-03-02T10:48:39;22.17;;;20.27;;
63346;SDS011;49472;49.880;8.650;2024-03-02T10:51:05;23.73;;;21.63;;
63346;SDS011;49472;49.880;8.650;2024-03-02T10:53:31;23.50;;;21.43;;
63346;SDS011;49472;49.880;8.650;2024-03-02T10:55:57;22.70;;;20.50;;
63346;SDS011;49472;49.880;8.650;2024-03-02T10:58:27;26.23;;;21.30;;
63346;SDS011;49472;49.880;8.650;2024-03-02T11:00:55;21.90;;;20.10;;
63346;SDS011;49472;49.880;8.650;2024-03-02T11:03:21;22.43;;;20.33;;
63346;SDS011;49472;49.880;8.650;2024-03-02T11:05:46;22.70;;;20.43;;
63346;SDS011;49472;49.880;8.650;2024-03-02T11:08:12;22.57;;;20.33;;
63346;SDS011;49472;49.880;8.650;2024-03-02T11:10:41;22.17;;;20.30;;
63346;SDS011;49472;49.880;8.650;2024-03-02T11:13:09;21.87;;;19.93;;
63346;SDS011;49472;49.880;8.650;2024-03-02T11:15:34;24.47;;;21.93;;
63346;SDS011;49472;49.880;8.650;2024-03-02T11:18:01;22.40;;;20.33;;
63346;SDS011;49472;49.880;8.650;2024-03-02T11:20:27;23.30;;;21.30;;
63346;SDS011;49472;49.880;8.650;2024-03-02T11:22:53;22.43;;;20.50;;
63346;SDS011;49472;49.880;8.650;2024-03-02T11:25:27;22.37;;;20.37;;
63346;SDS011;49472;49.880;8.650;2024-03-02T11:35:27;22.05;;;20.00;;
63346;SDS011;49472;49.880;8.650;2024-03-02T11:37:55;21.50;;;19.60;;
63346;SDS011;49472;49.880;8.650;2024-03-02T11:40:26;21.23;;;19.37;;
63346;SDS011;49472;49.880;8.650;2024-03-02T11:42:52;21.87;;;19.67;;
63346;SDS011;49472;49.880;8.650;2024-03-02T11:45:17;19.00;;;17.70;;
63346;SDS011;49472;49.880;8.650;2024-03-02T11:47:50;18.57;;;17.07;;
63346;SDS011;49472;49.880;8.650;2024-03-02T11:50:28;18.30;;;16.80;;
63346;SDS011;49472;49.880;8.650;2024-03-02T11:52:56;18.20;;;17.00;;
63346;SDS011;49472;49.880;8.650;2024-03-02T11:55:22;19.40;;;17.97;;
63346;SDS011;49472;49.880;8.650;2024-03-02T11:57:49;19.17;;;17.67;;
63346;SDS011;49472;49.880;8.650;2024-03-02T12:00:18;20.77;;;18.57;;
63346;SDS011;49472;49.880;8.650;2024-03-02T12:02:43;19.07;;;17.47;;
63346;SDS011;49472;49.880;8.650;2024-03-02T12:05:12;20.67;;;18.83;;
63346;SDS011;49472;49.880;8.650;2024-03-02T12:07:38;17.70;;;16.40;;
63346;SDS011;49472;49.880;8.650;2024-03-02T12:10:03;19.57;;;18.27;;
63346;SDS011;49472;49.880;8.650;2024-03-02T12:12:28;19.20;;;17.80;;
63346;SDS011;49472;49.880;8.650;2024-03-02T12:14:53;18.90;;;17.60;;
63346;SDS011;49472;49.880;8.650;2024-03-02T12:17:20;17.67;;;16.57;;
63346;SDS011;49472;49.880;8.650;2024-03-02T12:19:45;18.53;;;17.33;;
63346;SDS011;49472;49.880;8.650;2024-03-02T12:22:11;18.47;;;16.97;;
63346;SDS011;49472;49.880;8.650;2024-03-02T12:24:36;17.70;;;16.50;;
63346;SDS011;49472;49.880;8.650;2024-03-02T12:27:02;18.60;;;17.10;;
63346;SDS011;49472;49.880;8.650;2024-03-02T12:29:28;18.33;;;17.07;;
63346;SDS011;49472;49.880;8.650;2024-03-02T12:31:53;18.43;;;17.13;;
63346;SDS011;49472;49.880;8.650;2024-03-02T12:34:18;18.50;;;17.17;;
63346;SDS011;49472;49.880;8.650;2024-03-02T12:36:45;18.87;;;17.60;;
63346;SDS011;49472;49.880;8.650;2024-03-02T12:39:12;19.20;;;17.43;;
63346;SDS011;49472;49.880;8.650;2024-03-02T12:41:38;18.87;;;17.43;;
63346;SDS011;49472;49.880;8.650;2024-03-02T12:44:03;17.93;;;16.63;;
63346;SDS011;49472;49.880;8.650;2024-03-02T12:46:28;19.07;;;17.67;;
63346;SDS011;49472;49.880;8.650;2024-03-02T12:48:54;18.27;;;17.07;;
63346;SDS011;49472;49.880;8.650;2024-03-02T12:51:19;17.80;;;16.60;;
63346;SDS011;49472;49.880;8.650;2024-03-02T12:53:44;18.55;;;17.23;;
63346;SDS011;49472;49.880;8.650;2024-03-02T12:56:09;18.67;;;17.27;;
63346;SDS011;49472;49.880;8.650;2024-03-02T12:58:38;18.27;;;16.98;;
63346;SDS011;49472;49.880;8.650;2024-03-02T13:01:05;17.95;;;16.75;;
63346;SDS011;49472;49.880;8.650;2024-03-02T13:03:30;19.13;;;17.42;;
63346;SDS011;49472;49.880;8.650;2024-03-02T13:05:56;18.75;;;17.02;;
63346;SDS011;49472;49.880;8.650;2024-03-02T13:08:21;19.27;;;17.90;;
63346;SDS011;49472;49.880;8.650;2024-03-02T13:10:46;18.77;;;17.40;;
63346;SDS011;49472;49.880;8.650;2024-03-02T13:13:12;17.50;;;16.17;;
63346;SDS011;49472;49.880;8.650;2024-03-02T13:15:37;18.20;;;17.00;;
63346;SDS011;49472;49.880;8.650;2024-03-02T13:18:03;18.02;;;16.92;;
63346;SDS011;49472;49.880;8.650;2024-03-02T13:20:32;18.50;;;17.20;;
63346;SDS011;49472;49.880;8.650;2024-03-02T13:22:57;18.38;;;16.98;;
63346;SDS011;49472;49.880;8.650;2024-03-02T13:25:22;18.17;;;16.65;;
63346;SDS011;49472;49.880;8.650;2024-03-02T13:27:48;17.17;;;15.98;;
63346;SDS011;49472;49.880;8.650;2024-03-02T13:30:13;17.13;;;15.95;;
63346;SDS011;49472;49.880;8.650;2024-03-02T13:32:38;16.95;;;15.95;;
63346;SDS011;49472;49.880;8.650;2024-03-02T13:35:03;17.38;;;16.27;;
63346;SDS011;49472;49.880;8.650;2024-03-02T13:37:29;16.65;;;15.65;;
63346;SDS011;49472;49.880;8.650;2024-03-02T13:39:54;17.13;;;16.13;;
63346;SDS011;49472;49.880;8.650;2024-03-02T13:42:19;16.00;;;15.03;;
63346;SDS011;49472;49.880;8.650;2024-03-02T13:44:44;18.10;;;17.00;;
63346;SDS011;49472;49.880;8.650;2024-03-02T13:47:14;17.70;;;16.48;;
63346;SDS011;49472;49.880;8.650;2024-03-02T13:49:39;17.33;;;16.13;;
63346;SDS011;49472;49.880;8.650;2024-03-02T13:52:08;18.60;;;17.30;;
63346;SDS011;49472;49.880;8.650;2024-03-02T13:54:41;17.58;;;16.48;;
63346;SDS011;49472;49.880;8.650;2024-03-02T13:57:07;18.10;;;17.00;;
63346;SDS011;49472;49.880;8.650;2024-03-02T13:59:32;17.45;;;16.25;;
63346;SDS011;49472;49.880;8.650;2024-03-02T14:01:58;17.13;;;16.10;;
63346;SDS011;49472;49.880;8.650;2024-03-02T14:04:23;17.75;;;16.45;;
63346;SDS011;49472;49.880;8.650;2024-03-02T14:06:49;17.65;;;16.45;;
63346;SDS011;49472;49.880;8.650;2024-03-02T14:09:14;16.80;;;15.80;;
63346;SDS011;49472;49.880;8.650;2024-03-02T14:11:39;17.85;;;16.65;;
63346;SDS011;49472;49.880;8.650;2024-03-02T14:14:05;17.03;;;15.93;;
63346;SDS011;49472;49.880;8.650;2024-03-02T14:16:30;17.98;;;16.83;;
63346;SDS011;49472;49.880;8.650;2024-03-02T14:18:55;18.00;;;16.80;;
63346;SDS011;49472;49.880;8.650;2024-03-02T14:21:21;17.48;;;16.45;;
63346;SDS011;49472;49.880;8.650;2024-03-02T14:23:46;17.73;;;16.67;;